sensor_id;sensor_type;location;lat;lon;timestamp;P1;durP1;ratioP1;P2;durP2;ratioP2
30303;SDS011;17112;48.636;10.152;2023-05-07T00:01:16;2.63;;;1.10;;
30303;SDS011;17112;48.636;10.152;2023-05-07T00:03:42;3.28;;;1.00;;
30303;SDS011;17112;48.636;10.152;2023-05-07T00:06:08;1.42;;;1.02;;
30303;SDS011;17112;48.636;10.152;2023-05-07T00:08:35;3.15;;;0.90;;
30303;SDS011;17112;48.636;10.152;2023-05-07T00:11:00;2.95;;;1.08;;
30303;SDS011;17112;48.636;10.152;2023-05-07T00:13:26;1.60;;;1.00;;
30303;SDS011;17112;48.636;10.152;2023-05-07T00:15:52;2.83;;;1.52;;
30303;SDS011;17112;48.636;10.152;2023-05-07T00:18:17;2.00;;;1.30;;
30303;SDS011;17112;48.636;10.152;2023-05-07T00:20:46;7.78;;;1.30;;
30303;SDS011;17112;48.636;10.152;2023-05-07T00:23:11;2.97;;;1.58;;
30303;SDS011;17112;48.636;10.152;2023-05-07T00:25:37;4.45;;;1.20;;
30303;SDS011;17112;48.636;10.152;2023-05-07T00:28:02;2.40;;;1.63;;
30303;SDS011;17112;48.636;10.152;2023-05-07T00:30:28;2.53;;;1.45;;
30303;SDS011;17112;48.636;10.152;2023-05-07T00:32:54;2.10;;;1.52;;
30303;SDS011;17112;48.636;10.152;2023-05-07T00:35:20;5.97;;;1.33;;
30303;SDS011;17112;48.636;10.152;2023-05-07T00:37:46;3.08;;;1.45;;
30303;SDS011;17112;48.636;10.152;2023-05-07T00:40:13;3.42;;;1.20;;
30303;SDS011;17112;48.636;10.152;2023-05-07T00:42:39;3.05;;;1.30;;
30303;SDS011;17112;48.636;10.152;2023-05-07T00:45:05;1.98;;;1.20;;
30303;SDS011;17112;48.636;10.152;2023-05-07T00:47:32;3.25;;;1.05;;
30303;SDS011;17112;48.636;10.152;2023-05-07T00:49:58;4.28;;;1.05;;
30303;SDS011;17112;48.636;10.152;2023-05-07T00:52:25;2.63;;;1.10;;
30303;SDS011;17112;48.636;10.152;2023-05-07T00:54:51;2.08;;;1.20;;
30303;SDS011;17112;48.636;10.152;2023-05-07T00:57:17;2.42;;;1.15;;
30303;SDS011;17112;48.636;10.152;2023-05-07T00:59:43;3.30;;;1.13;;
30303;SDS011;17112;48.636;10.152;2023-05-07T01:02:09;1.63;;;0.90;;
30303;SDS011;17112;48.636;10.152;2023-05-07T01:04:35;3.38;;;0.80;;
30303;SDS011;17112;48.636;10.152;2023-05-07T01:07:01;1.42;;;1.25;;
30303;SDS011;17112;48.636;10.152;2023-05-07T01:09:28;2.60;;;1.23;;
30303;SDS011;17112;48.636;10.152;2023-05-07T01:11:54;2.92;;;1.30;;
30303;SDS011;17112;48.636;10.152;2023-05-07T01:14:22;3.75;;;1.70;;
30303;SDS011;17112;48.636;10.152;2023-05-07T01:16:48;4.05;;;1.23;;
30303;SDS011;17112;48.636;10.152;2023-05-07T01:19:16;2.22;;;1.05;;
30303;SDS011;17112;48.636;10.152;2023-05-07T01:21:45;1.20;;;1.10;;
30303;SDS011;17112;48.636;10.152;2023-05-07T01:24:12;1.45;;;0.98;;
30303;SDS011;17112;48.636;10.152;2023-05-07T01:26:39;1.23;;;1.00;;
30303;SDS011;17112;48.636;10.152;2023-05-07T01:29:05;0.90;;;0.90;;
30303;SDS011;17112;48.636;10.152;2023-05-07T01:31:32;3.17;;;1.02;;
30303;SDS011;17112;48.636;10.152;2023-05-07T01:33:59;2.35;;;1.15;;
30303;SDS011;17112;48.636;10.152;2023-05-07T01:36:27;3.60;;;1.00;;
30303;SDS011;17112;48.636;10.152;2023-05-07T01:38:55;1.05;;;0.98;;
30303;SDS011;17112;48.636;10.152;2023-05-07T01:41:23;1.42;;;1.20;;
30303;SDS011;17112;48.636;10.152;2023-05-07T01:43:49;1.75;;;1.20;;
30303;SDS011;17112;48.636;10.152;2023-05-07T01:46:17;1.73;;;1.15;;
30303;SDS011;17112;48.636;10.152;2023-05-07T01:48:44;1.80;;;1.10;;
30303;SDS011;17112;48.636;10.152;2023-05-07T01:51:11;2.47;;;1.20;;
30303;SDS011;17112;48.636;10.152;2023-05-07T01:53:37;1.70;;;1.30;;
30303;SDS011;17112;48.636;10.152;2023-05-07T01:56:04;2.95;;;1.13;;
30303;SDS011;17112;48.636;10.152;2023-05-07T01:58:30;1.60;;;1.27;;
30303;SDS011;17112;48.636;10.152;2023-05-07T02:00:56;1.40;;;1.17;;
30303;SDS011;17112;48.636;10.152;2023-05-07T02:03:21;1.30;;;1.15;;
30303;SDS011;17112;48.636;10.152;2023-05-07T02:05:47;2.78;;;1.20;;
30303;SDS011;17112;48.636;10.152;2023-05-07T02:08:13;2.28;;;1.20;;
30303;SDS011;17112;48.636;10.152;2023-05-07T02:10:38;1.77;;;1.13;;
30303;SDS011;17112;48.636;10.152;2023-05-07T02:13:04;2.28;;;1.10;;
30303;SDS011;17112;48.636;10.152;2023-05-07T02:15:30;1.10;;;0.98;;
30303;SDS011;17112;48.636;10.152;2023-05-07T02:18:01;1.60;;;1.10;;
30303;SDS011;17112;48.636;10.152;2023-05-07T02:20:28;2.35;;;0.98;;
30303;SDS011;17112;48.636;10.152;2023-05-07T02:22:54;2.95;;;1.00;;
30303;SDS011;17112;48.636;10.152;2023-05-07T02:25:20;3.28;;;1.10;;
30303;SDS011;17112;48.636;10.152;2023-05-07T02:27:45;1.50;;;1.00;;
30303;SDS011;17112;48.636;10.152;2023-05-07T02:30:11;1.65;;;0.98;;
30303;SDS011;17112;48.636;10.152;2023-05-07T02:32:37;2.70;;;1.13;;
30303;SDS011;17112;48.636;10.152;2023-05-07T02:35:03;3.85;;;1.05;;
30303;SDS011;17112;48.636;10.152;2023-05-07T02:37:29;2.13;;;1.23;;
30303;SDS011;17112;48.636;10.152;2023-05-07T02:39:55;2.75;;;1.27;;
30303;SDS011;17112;48.636;10.152;2023-05-07T02:42:21;2.22;;;1.00;;
30303;SDS011;17112;48.636;10.152;2023-05-07T02:44:46;1.25;;;1.10;;
30303;SDS011;17112;48.636;10.152;2023-05-07T02:47:13;2.30;;;1.20;;
30303;SDS011;17112;48.636;10.152;2023-05-07T02:49:40;4.00;;;1.05;;
30303;SDS011;17112;48.636;10.152;2023-05-07T02:52:05;3.20;;;1.30;;
30303;SDS011;17112;48.636;10.152;2023-05-07T02:54:31;5.55;;;1.10;;
30303;SDS011;17112;48.636;10.152;2023-05-07T02:56:57;1.88;;;1.13;;
30303;SDS011;17112;48.636;10.152;2023-05-07T02:59:23;3.88;;;1.08;;
30303;SDS011;17112;48.636;10.152;2023-05-07T03:01:50;2.15;;;1.02;;
30303;SDS011;17112;48.636;10.152;2023-05-07T03:04:15;2.15;;;1.40;;
30303;SDS011;17112;48.636;10.152;2023-05-07T03:06:42;4.47;;;1.10;;
30303;SDS011;17112;48.636;10.152;2023-05-07T03:09:07;1.73;;;0.95;;
30303;SDS011;17112;48.636;10.152;2023-05-07T03:11:33;2.60;;;1.13;;
30303;SDS011;17112;48.636;10.152;2023-05-07T03:14:00;4.32;;;1.02;;
30303;SDS011;17112;48.636;10.152;2023-05-07T03:16:26;2.50;;;1.10;;
30303;SDS011;17112;48.636;10.152;2023-05-07T03:18:52;18.27;;;1.58;;
30303;SDS011;17112;48.636;10.152;2023-05-07T03:21:17;1.95;;;1.10;;
30303;SDS011;17112;48.636;10.152;2023-05-07T03:23:43;1.90;;;1.42;;
30303;SDS011;17112;48.636;10.152;2023-05-07T03:26:09;2.17;;;1.20;;
30303;SDS011;17112;48.636;10.152;2023-05-07T03:28:35;2.65;;;1.50;;
30303;SDS011;17112;48.636;10.152;2023-05-07T03:31:01;0.90;;;0.90;;
30303;SDS011;17112;48.636;10.152;2023-05-07T03:33:27;2.50;;;1.02;;
30303;SDS011;17112;48.636;10.152;2023-05-07T03:35:53;2.83;;;1.23;;
30303;SDS011;17112;48.636;10.152;2023-05-07T03:38:18;3.58;;;1.10;;
30303;SDS011;17112;48.636;10.152;2023-05-07T03:40:45;2.08;;;1.17;;
30303;SDS011;17112;48.636;10.152;2023-05-07T03:43:11;1.05;;;0.95;;
30303;SDS011;17112;48.636;10.152;2023-05-07T03:45:36;2.22;;;1.10;;
30303;SDS011;17112;48.636;10.152;2023-05-07T03:48:02;2.45;;;1.00;;
30303;SDS011;17112;48.636;10.152;2023-05-07T03:50:28;3.22;;;1.10;;
30303;SDS011;17112;48.636;10.152;2023-05-07T03:52:54;1.83;;;0.88;;
30303;SDS011;17112;48.636;10.152;2023-05-07T03:55:19;3.72;;;1.08;;
30303;SDS011;17112;48.636;10.152;2023-05-07T03:57:46;2.60;;;1.92;;
30303;SDS011;17112;48.636;10.152;2023-05-07T04:00:11;3.92;;;2.30;;
30303;SDS011;17112;48.636;10.152;2023-05-07T04:02:38;2.22;;;1.50;;
30303;SDS011;17112;48.636;10.152;2023-05-07T04:05:03;1.67;;;1.25;;
30303;SDS011;17112;48.636;10.152;2023-05-07T04:07:30;1.13;;;1.08;;
30303;SDS011;17112;48.636;10.152;2023-05-07T04:09:55;4.03;;;1.15;;
30303;SDS011;17112;48.636;10.152;2023-05-07T04:12:21;1.35;;;1.20;;
30303;SDS011;17112;48.636;10.152;2023-05-07T04:14:46;1.38;;;1.00;;
30303;SDS011;17112;48.636;10.152;2023-05-07T04:17:12;1.35;;;1.15;;
30303;SDS011;17112;48.636;10.152;2023-05-07T04:19:38;2.60;;;1.15;;
30303;SDS011;17112;48.636;10.152;2023-05-07T04:22:04;2.88;;;1.30;;
30303;SDS011;17112;48.636;10.152;2023-05-07T04:24:33;2.83;;;1.38;;
30303;SDS011;17112;48.636;10.152;2023-05-07T04:26:58;3.72;;;1.40;;
30303;SDS011;17112;48.636;10.152;2023-05-07T04:29:24;2.08;;;1.52;;
30303;SDS011;17112;48.636;10.152;2023-05-07T04:31:50;1.42;;;1.30;;
30303;SDS011;17112;48.636;10.152;2023-05-07T04:34:15;1.98;;;1.20;;
30303;SDS011;17112;48.636;10.152;2023-05-07T04:36:41;2.95;;;1.25;;
30303;SDS011;17112;48.636;10.152;2023-05-07T04:39:07;1.77;;;1.20;;
30303;SDS011;17112;48.636;10.152;2023-05-07T04:41:33;4.68;;;1.30;;
30303;SDS011;17112;48.636;10.152;2023-05-07T04:44:01;3.65;;;1.35;;
30303;SDS011;17112;48.636;10.152;2023-05-07T04:46:28;1.20;;;1.10;;
30303;SDS011;17112;48.636;10.152;2023-05-07T04:48:54;3.58;;;1.38;;
30303;SDS011;17112;48.636;10.152;2023-05-07T04:51:20;1.20;;;1.10;;
30303;SDS011;17112;48.636;10.152;2023-05-07T04:53:46;4.95;;;1.10;;
30303;SDS011;17112;48.636;10.152;2023-05-07T04:56:12;2.55;;;1.10;;
30303;SDS011;17112;48.636;10.152;2023-05-07T04:58:38;6.28;;;1.77;;
30303;SDS011;17112;48.636;10.152;2023-05-07T05:01:04;1.98;;;1.10;;
30303;SDS011;17112;48.636;10.152;2023-05-07T05:03:30;1.48;;;1.17;;
30303;SDS011;17112;48.636;10.152;2023-05-07T05:05:55;1.90;;;1.20;;
30303;SDS011;17112;48.636;10.152;2023-05-07T05:08:24;8.02;;;1.45;;
30303;SDS011;17112;48.636;10.152;2023-05-07T05:10:49;2.45;;;1.20;;
30303;SDS011;17112;48.636;10.152;2023-05-07T05:13:15;3.22;;;1.10;;
30303;SDS011;17112;48.636;10.152;2023-05-07T05:15:41;1.60;;;1.20;;
30303;SDS011;17112;48.636;10.152;2023-05-07T05:18:07;5.15;;;1.30;;
30303;SDS011;17112;48.636;10.152;2023-05-07T05:20:33;2.50;;;1.10;;
30303;SDS011;17112;48.636;10.152;2023-05-07T05:22:58;1.30;;;1.20;;
30303;SDS011;17112;48.636;10.152;2023-05-07T05:25:24;1.42;;;1.08;;
30303;SDS011;17112;48.636;10.152;2023-05-07T05:27:50;1.42;;;1.20;;
30303;SDS011;17112;48.636;10.152;2023-05-07T05:30:15;2.60;;;1.30;;
30303;SDS011;17112;48.636;10.152;2023-05-07T05:32:41;0.90;;;0.90;;
30303;SDS011;17112;48.636;10.152;2023-05-07T05:35:07;1.20;;;1.10;;
30303;SDS011;17112;48.636;10.152;2023-05-07T05:37:33;4.90;;;1.42;;
30303;SDS011;17112;48.636;10.152;2023-05-07T05:39:59;3.65;;;1.52;;
30303;SDS011;17112;48.636;10.152;2023-05-07T05:42:24;2.80;;;1.52;;
30303;SDS011;17112;48.636;10.152;2023-05-07T05:44:50;1.85;;;1.38;;
30303;SDS011;17112;48.636;10.152;2023-05-07T05:47:15;3.63;;;1.85;;
30303;SDS011;17112;48.636;10.152;2023-05-07T05:49:41;2.40;;;1.60;;
30303;SDS011;17112;48.636;10.152;2023-05-07T05:52:08;2.83;;;1.52;;
30303;SDS011;17112;48.636;10.152;2023-05-07T05:54:34;12.00;;;1.70;;
30303;SDS011;17112;48.636;10.152;2023-05-07T05:57:00;2.97;;;1.88;;
30303;SDS011;17112;48.636;10.152;2023-05-07T05:59:28;1.88;;;1.38;;
30303;SDS011;17112;48.636;10.152;2023-05-07T06:01:54;3.95;;;1.60;;
30303;SDS011;17112;48.636;10.152;2023-05-07T06:04:20;2.28;;;1.60;;
30303;SDS011;17112;48.636;10.152;2023-05-07T06:06:46;1.63;;;1.33;;
30303;SDS011;17112;48.636;10.152;2023-05-07T06:09:11;4.15;;;1.45;;
30303;SDS011;17112;48.636;10.152;2023-05-07T06:11:37;1.92;;;1.55;;
30303;SDS011;17112;48.636;10.152;2023-05-07T06:14:03;3.92;;;1.80;;
30303;SDS011;17112;48.636;10.152;2023-05-07T06:16:28;2.10;;;1.75;;
30303;SDS011;17112;48.636;10.152;2023-05-07T06:18:54;2.88;;;1.45;;
30303;SDS011;17112;48.636;10.152;2023-05-07T06:21:20;3.70;;;1.55;;
30303;SDS011;17112;48.636;10.152;2023-05-07T06:23:46;1.88;;;1.42;;
30303;SDS011;17112;48.636;10.152;2023-05-07T06:26:11;4.97;;;2.00;;
30303;SDS011;17112;48.636;10.152;2023-05-07T06:28:37;2.97;;;1.65;;
30303;SDS011;17112;48.636;10.152;2023-05-07T06:31:13;4.43;;;1.70;;
30303;SDS011;17112;48.636;10.152;2023-05-07T06:33:39;4.97;;;2.00;;
30303;SDS011;17112;48.636;10.152;2023-05-07T06:36:05;3.80;;;1.90;;
30303;SDS011;17112;48.636;10.152;2023-05-07T06:38:31;2.40;;;1.80;;
30303;SDS011;17112;48.636;10.152;2023-05-07T06:40:57;2.30;;;1.80;;
30303;SDS011;17112;48.636;10.152;2023-05-07T06:43:22;4.28;;;1.90;;
30303;SDS011;17112;48.636;10.152;2023-05-07T06:45:48;4.38;;;2.17;;
30303;SDS011;17112;48.636;10.152;2023-05-07T06:48:14;1.92;;;1.63;;
30303;SDS011;17112;48.636;10.152;2023-05-07T06:50:39;2.85;;;1.90;;
30303;SDS011;17112;48.636;10.152;2023-05-07T06:53:06;3.13;;;2.10;;
30303;SDS011;17112;48.636;10.152;2023-05-07T06:55:32;5.05;;;1.85;;
30303;SDS011;17112;48.636;10.152;2023-05-07T06:57:57;3.05;;;1.88;;
30303;SDS011;17112;48.636;10.152;2023-05-07T07:00:26;2.88;;;2.13;;
30303;SDS011;17112;48.636;10.152;2023-05-07T07:02:52;2.53;;;2.03;;
30303;SDS011;17112;48.636;10.152;2023-05-07T07:05:19;3.95;;;2.30;;
30303;SDS011;17112;48.636;10.152;2023-05-07T07:07:45;3.55;;;2.65;;
30303;SDS011;17112;48.636;10.152;2023-05-07T07:10:17;3.45;;;2.88;;
30303;SDS011;17112;48.636;10.152;2023-05-07T07:12:44;3.95;;;2.85;;
30303;SDS011;17112;48.636;10.152;2023-05-07T07:15:10;4.63;;;2.58;;
30303;SDS011;17112;48.636;10.152;2023-05-07T07:17:36;6.25;;;3.00;;
30303;SDS011;17112;48.636;10.152;2023-05-07T07:20:02;4.35;;;3.08;;
30303;SDS011;17112;48.636;10.152;2023-05-07T07:22:28;3.92;;;2.95;;
30303;SDS011;17112;48.636;10.152;2023-05-07T07:24:54;3.92;;;2.92;;
30303;SDS011;17112;48.636;10.152;2023-05-07T07:27:20;5.05;;;2.65;;
30303;SDS011;17112;48.636;10.152;2023-05-07T07:29:45;6.13;;;3.38;;
30303;SDS011;17112;48.636;10.152;2023-05-07T07:32:11;5.70;;;2.85;;
30303;SDS011;17112;48.636;10.152;2023-05-07T07:34:37;3.35;;;2.85;;
30303;SDS011;17112;48.636;10.152;2023-05-07T07:37:02;7.38;;;2.80;;
30303;SDS011;17112;48.636;10.152;2023-05-07T07:39:31;5.30;;;2.67;;
30303;SDS011;17112;48.636;10.152;2023-05-07T07:41:57;3.60;;;2.63;;
30303;SDS011;17112;48.636;10.152;2023-05-07T07:44:24;4.03;;;2.70;;
30303;SDS011;17112;48.636;10.152;2023-05-07T07:46:50;3.92;;;2.83;;
30303;SDS011;17112;48.636;10.152;2023-05-07T07:49:16;4.43;;;2.30;;
30303;SDS011;17112;48.636;10.152;2023-05-07T07:51:42;3.55;;;2.13;;
30303;SDS011;17112;48.636;10.152;2023-05-07T07:54:08;2.47;;;2.10;;
30303;SDS011;17112;48.636;10.152;2023-05-07T07:56:34;2.97;;;1.70;;
30303;SDS011;17112;48.636;10.152;2023-05-07T07:59:00;2.70;;;2.03;;
30303;SDS011;17112;48.636;10.152;2023-05-07T08:01:25;2.92;;;1.95;;
30303;SDS011;17112;48.636;10.152;2023-05-07T08:03:51;1.98;;;1.80;;
30303;SDS011;17112;48.636;10.152;2023-05-07T08:06:17;2.05;;;1.73;;
30303;SDS011;17112;48.636;10.152;2023-05-07T08:08:43;4.07;;;1.73;;
30303;SDS011;17112;48.636;10.152;2023-05-07T08:11:09;2.47;;;1.75;;
30303;SDS011;17112;48.636;10.152;2023-05-07T08:13:35;2.97;;;1.85;;
30303;SDS011;17112;48.636;10.152;2023-05-07T08:16:03;2.00;;;1.75;;
30303;SDS011;17112;48.636;10.152;2023-05-07T08:18:29;2.40;;;1.60;;
30303;SDS011;17112;48.636;10.152;2023-05-07T08:20:55;2.42;;;1.98;;
30303;SDS011;17112;48.636;10.152;2023-05-07T08:23:21;5.03;;;1.80;;
30303;SDS011;17112;48.636;10.152;2023-05-07T08:25:48;2.38;;;1.75;;
30303;SDS011;17112;48.636;10.152;2023-05-07T08:28:14;3.58;;;1.75;;
30303;SDS011;17112;48.636;10.152;2023-05-07T08:30:40;2.65;;;1.92;;
30303;SDS011;17112;48.636;10.152;2023-05-07T08:33:06;2.70;;;1.70;;
30303;SDS011;17112;48.636;10.152;2023-05-07T08:35:33;4.25;;;1.80;;
30303;SDS011;17112;48.636;10.152;2023-05-07T08:37:59;2.78;;;1.60;;
30303;SDS011;17112;48.636;10.152;2023-05-07T08:40:25;4.57;;;1.95;;
30303;SDS011;17112;48.636;10.152;2023-05-07T08:42:52;1.48;;;1.38;;
30303;SDS011;17112;48.636;10.152;2023-05-07T08:45:19;4.70;;;1.50;;
30303;SDS011;17112;48.636;10.152;2023-05-07T08:47:51;3.63;;;1.75;;
30303;SDS011;17112;48.636;10.152;2023-05-07T08:50:21;2.67;;;1.75;;
30303;SDS011;17112;48.636;10.152;2023-05-07T08:52:47;5.53;;;2.40;;
30303;SDS011;17112;48.636;10.152;2023-05-07T08:55:13;3.20;;;2.00;;
30303;SDS011;17112;48.636;10.152;2023-05-07T08:57:40;3.33;;;2.17;;
30303;SDS011;17112;48.636;10.152;2023-05-07T09:00:06;3.25;;;1.67;;
30303;SDS011;17112;48.636;10.152;2023-05-07T09:02:32;2.60;;;1.60;;
30303;SDS011;17112;48.636;10.152;2023-05-07T09:04:58;3.47;;;1.70;;
30303;SDS011;17112;48.636;10.152;2023-05-07T09:07:25;2.08;;;1.50;;
30303;SDS011;17112;48.636;10.152;2023-05-07T09:09:51;2.72;;;1.75;;
30303;SDS011;17112;48.636;10.152;2023-05-07T09:12:17;4.13;;;1.95;;
30303;SDS011;17112;48.636;10.152;2023-05-07T09:14:43;2.10;;;1.65;;
30303;SDS011;17112;48.636;10.152;2023-05-07T09:17:10;5.72;;;1.90;;
30303;SDS011;17112;48.636;10.152;2023-05-07T09:19:36;2.15;;;1.92;;
30303;SDS011;17112;48.636;10.152;2023-05-07T09:22:03;6.03;;;1.92;;
30303;SDS011;17112;48.636;10.152;2023-05-07T09:24:30;2.28;;;1.58;;
30303;SDS011;17112;48.636;10.152;2023-05-07T09:27:00;2.90;;;1.70;;
30303;SDS011;17112;48.636;10.152;2023-05-07T09:29:27;2.50;;;1.75;;
30303;SDS011;17112;48.636;10.152;2023-05-07T09:32:00;2.33;;;1.63;;
30303;SDS011;17112;48.636;10.152;2023-05-07T09:34:28;2.70;;;1.58;;
30303;SDS011;17112;48.636;10.152;2023-05-07T09:36:55;3.03;;;1.88;;
30303;SDS011;17112;48.636;10.152;2023-05-07T09:39:21;4.05;;;1.60;;
30303;SDS011;17112;48.636;10.152;2023-05-07T09:41:48;2.90;;;1.58;;
30303;SDS011;17112;48.636;10.152;2023-05-07T09:44:14;4.72;;;2.25;;
30303;SDS011;17112;48.636;10.152;2023-05-07T09:46:42;4.43;;;2.13;;
30303;SDS011;17112;48.636;10.152;2023-05-07T09:49:12;3.72;;;2.13;;
30303;SDS011;17112;48.636;10.152;2023-05-07T09:51:49;1.83;;;1.73;;
30303;SDS011;17112;48.636;10.152;2023-05-07T09:54:16;3.05;;;2.03;;
30303;SDS011;17112;48.636;10.152;2023-05-07T09:56:45;4.35;;;2.00;;
30303;SDS011;17112;48.636;10.152;2023-05-07T09:59:13;4.82;;;1.70;;
30303;SDS011;17112;48.636;10.152;2023-05-07T10:01:41;3.00;;;1.58;;
30303;SDS011;17112;48.636;10.152;2023-05-07T10:04:07;3.40;;;1.15;;
30303;SDS011;17112;48.636;10.152;2023-05-07T10:06:34;1.17;;;0.80;;
30303;SDS011;17112;48.636;10.152;2023-05-07T10:09:00;2.10;;;1.25;;
30303;SDS011;17112;48.636;10.152;2023-05-07T10:11:27;1.88;;;1.33;;
30303;SDS011;17112;48.636;10.152;2023-05-07T10:13:53;3.40;;;1.73;;
30303;SDS011;17112;48.636;10.152;2023-05-07T10:16:20;2.17;;;1.88;;
30303;SDS011;17112;48.636;10.152;2023-05-07T10:18:46;2.90;;;1.60;;
30303;SDS011;17112;48.636;10.152;2023-05-07T10:21:16;3.75;;;1.70;;
30303;SDS011;17112;48.636;10.152;2023-05-07T10:23:51;1.80;;;1.30;;
30303;SDS011;17112;48.636;10.152;2023-05-07T10:26:21;3.20;;;1.35;;
30303;SDS011;17112;48.636;10.152;2023-05-07T10:28:50;7.00;;;1.75;;
30303;SDS011;17112;48.636;10.152;2023-05-07T10:34:13;2.83;;;1.20;;
30303;SDS011;17112;48.636;10.152;2023-05-07T10:36:44;3.55;;;2.20;;
30303;SDS011;17112;48.636;10.152;2023-05-07T10:39:10;3.20;;;2.00;;
30303;SDS011;17112;48.636;10.152;2023-05-07T10:41:36;2.65;;;1.55;;
30303;SDS011;17112;48.636;10.152;2023-05-07T10:44:01;4.60;;;0.90;;
30303;SDS011;17112;48.636;10.152;2023-05-07T10:46:28;2.13;;;1.42;;
30303;SDS011;17112;48.636;10.152;2023-05-07T10:51:26;4.68;;;1.67;;
30303;SDS011;17112;48.636;10.152;2023-05-07T10:56:40;4.90;;;1.17;;
30303;SDS011;17112;48.636;10.152;2023-05-07T11:04:18;1.33;;;1.00;;
30303;SDS011;17112;48.636;10.152;2023-05-07T11:15:05;2.10;;;1.13;;
30303;SDS011;17112;48.636;10.152;2023-05-07T11:17:32;2.42;;;1.27;;
30303;SDS011;17112;48.636;10.152;2023-05-07T11:20:02;2.78;;;1.10;;
30303;SDS011;17112;48.636;10.152;2023-05-07T11:25:04;3.97;;;1.08;;
30303;SDS011;17112;48.636;10.152;2023-05-07T11:27:32;1.67;;;1.10;;
30303;SDS011;17112;48.636;10.152;2023-05-07T11:29:58;2.45;;;1.00;;
30303;SDS011;17112;48.636;10.152;2023-05-07T11:32:24;1.38;;;0.80;;
30303;SDS011;17112;48.636;10.152;2023-05-07T11:34:52;2.53;;;1.20;;
30303;SDS011;17112;48.636;10.152;2023-05-07T11:37:19;2.88;;;1.10;;
30303;SDS011;17112;48.636;10.152;2023-05-07T11:39:45;2.00;;;1.30;;
30303;SDS011;17112;48.636;10.152;2023-05-07T11:42:32;6.55;;;1.40;;
30303;SDS011;17112;48.636;10.152;2023-05-07T11:45:01;1.27;;;1.08;;
30303;SDS011;17112;48.636;10.152;2023-05-07T11:47:29;1.90;;;1.10;;
30303;SDS011;17112;48.636;10.152;2023-05-07T11:49:56;10.90;;;1.30;;
30303;SDS011;17112;48.636;10.152;2023-05-07T11:52:22;3.05;;;1.02;;
30303;SDS011;17112;48.636;10.152;2023-05-07T11:54:50;1.70;;;1.08;;
30303;SDS011;17112;48.636;10.152;2023-05-07T11:57:17;1.95;;;1.23;;
30303;SDS011;17112;48.636;10.152;2023-05-07T11:59:43;1.92;;;0.98;;
30303;SDS011;17112;48.636;10.152;2023-05-07T12:02:16;1.35;;;0.90;;
30303;SDS011;17112;48.636;10.152;2023-05-07T12:04:42;1.65;;;0.80;;
30303;SDS011;17112;48.636;10.152;2023-05-07T12:07:12;1.55;;;0.95;;
30303;SDS011;17112;48.636;10.152;2023-05-07T12:09:41;1.80;;;0.70;;
30303;SDS011;17112;48.636;10.152;2023-05-07T12:12:07;3.25;;;0.93;;
30303;SDS011;17112;48.636;10.152;2023-05-07T12:14:40;1.05;;;0.90;;
30303;SDS011;17112;48.636;10.152;2023-05-07T12:17:07;3.50;;;1.67;;
30303;SDS011;17112;48.636;10.152;2023-05-07T12:19:34;1.90;;;1.48;;
30303;SDS011;17112;48.636;10.152;2023-05-07T12:22:02;2.17;;;1.50;;
30303;SDS011;17112;48.636;10.152;2023-05-07T12:24:28;20.63;;;5.28;;
30303;SDS011;17112;48.636;10.152;2023-05-07T12:26:53;2.33;;;2.05;;
30303;SDS011;17112;48.636;10.152;2023-05-07T12:29:22;2.30;;;1.48;;
30303;SDS011;17112;48.636;10.152;2023-05-07T12:31:49;2.78;;;1.70;;
30303;SDS011;17112;48.636;10.152;2023-05-07T12:34:15;4.32;;;1.40;;
30303;SDS011;17112;48.636;10.152;2023-05-07T12:36:41;2.33;;;1.30;;
30303;SDS011;17112;48.636;10.152;2023-05-07T12:39:07;1.55;;;1.13;;
30303;SDS011;17112;48.636;10.152;2023-05-07T12:41:55;1.45;;;1.05;;
30303;SDS011;17112;48.636;10.152;2023-05-07T12:44:23;2.35;;;0.90;;
30303;SDS011;17112;48.636;10.152;2023-05-07T12:47:01;1.77;;;1.10;;
30303;SDS011;17112;48.636;10.152;2023-05-07T12:49:27;1.13;;;0.95;;
30303;SDS011;17112;48.636;10.152;2023-05-07T12:51:53;1.30;;;1.00;;
30303;SDS011;17112;48.636;10.152;2023-05-07T12:54:29;1.73;;;1.13;;
30303;SDS011;17112;48.636;10.152;2023-05-07T12:57:00;2.58;;;1.00;;
30303;SDS011;17112;48.636;10.152;2023-05-07T12:59:40;2.45;;;1.50;;
30303;SDS011;17112;48.636;10.152;2023-05-07T13:02:07;1.90;;;1.00;;
30303;SDS011;17112;48.636;10.152;2023-05-07T13:04:33;5.10;;;1.33;;
30303;SDS011;17112;48.636;10.152;2023-05-07T13:07:00;1.05;;;0.80;;
30303;SDS011;17112;48.636;10.152;2023-05-07T13:09:26;2.30;;;1.00;;
30303;SDS011;17112;48.636;10.152;2023-05-07T13:11:53;1.30;;;0.93;;
30303;SDS011;17112;48.636;10.152;2023-05-07T13:14:18;1.60;;;0.80;;
30303;SDS011;17112;48.636;10.152;2023-05-07T13:16:45;1.38;;;1.00;;
30303;SDS011;17112;48.636;10.152;2023-05-07T13:19:12;1.08;;;0.93;;
30303;SDS011;17112;48.636;10.152;2023-05-07T13:21:37;1.40;;;1.05;;
30303;SDS011;17112;48.636;10.152;2023-05-07T13:24:03;5.55;;;1.25;;
30303;SDS011;17112;48.636;10.152;2023-05-07T13:26:31;3.08;;;1.20;;
30303;SDS011;17112;48.636;10.152;2023-05-07T13:28:57;6.25;;;0.93;;
30303;SDS011;17112;48.636;10.152;2023-05-07T13:31:23;1.85;;;0.88;;
30303;SDS011;17112;48.636;10.152;2023-05-07T13:33:49;0.82;;;0.80;;
30303;SDS011;17112;48.636;10.152;2023-05-07T13:36:15;3.13;;;1.10;;
30303;SDS011;17112;48.636;10.152;2023-05-07T13:38:41;1.30;;;0.90;;
30303;SDS011;17112;48.636;10.152;2023-05-07T13:41:06;2.97;;;1.15;;
30303;SDS011;17112;48.636;10.152;2023-05-07T13:43:32;2.13;;;0.90;;
30303;SDS011;17112;48.636;10.152;2023-05-07T13:45:58;2.63;;;0.90;;
30303;SDS011;17112;48.636;10.152;2023-05-07T13:48:25;2.22;;;0.98;;
30303;SDS011;17112;48.636;10.152;2023-05-07T13:50:50;3.90;;;1.00;;
30303;SDS011;17112;48.636;10.152;2023-05-07T13:53:17;2.17;;;1.00;;
30303;SDS011;17112;48.636;10.152;2023-05-07T13:55:44;2.55;;;1.10;;
30303;SDS011;17112;48.636;10.152;2023-05-07T13:58:10;2.00;;;1.05;;
30303;SDS011;17112;48.636;10.152;2023-05-07T14:00:36;2.60;;;1.00;;
30303;SDS011;17112;48.636;10.152;2023-05-07T14:03:02;2.03;;;1.17;;
30303;SDS011;17112;48.636;10.152;2023-05-07T14:05:30;1.05;;;0.85;;
30303;SDS011;17112;48.636;10.152;2023-05-07T14:07:59;1.88;;;0.82;;
30303;SDS011;17112;48.636;10.152;2023-05-07T14:10:25;1.98;;;1.10;;
30303;SDS011;17112;48.636;10.152;2023-05-07T14:12:51;3.05;;;0.80;;
30303;SDS011;17112;48.636;10.152;2023-05-07T14:15:17;1.92;;;1.00;;
30303;SDS011;17112;48.636;10.152;2023-05-07T14:17:43;1.83;;;1.00;;
30303;SDS011;17112;48.636;10.152;2023-05-07T14:20:09;1.60;;;1.00;;
30303;SDS011;17112;48.636;10.152;2023-05-07T14:22:35;2.00;;;0.90;;
30303;SDS011;17112;48.636;10.152;2023-05-07T14:25:01;2.10;;;0.90;;
30303;SDS011;17112;48.636;10.152;2023-05-07T14:27:27;2.60;;;1.30;;
30303;SDS011;17112;48.636;10.152;2023-05-07T14:29:53;1.10;;;0.80;;
30303;SDS011;17112;48.636;10.152;2023-05-07T14:32:19;4.10;;;1.60;;
30303;SDS011;17112;48.636;10.152;2023-05-07T14:34:45;2.78;;;1.10;;
30303;SDS011;17112;48.636;10.152;2023-05-07T14:37:11;1.88;;;1.00;;
30303;SDS011;17112;48.636;10.152;2023-05-07T14:39:37;1.42;;;1.00;;
30303;SDS011;17112;48.636;10.152;2023-05-07T14:42:03;2.85;;;1.30;;
30303;SDS011;17112;48.636;10.152;2023-05-07T14:44:28;1.60;;;0.95;;
30303;SDS011;17112;48.636;10.152;2023-05-07T14:46:54;0.77;;;0.77;;
30303;SDS011;17112;48.636;10.152;2023-05-07T14:49:20;2.72;;;0.93;;
30303;SDS011;17112;48.636;10.152;2023-05-07T14:51:46;2.38;;;1.08;;
30303;SDS011;17112;48.636;10.152;2023-05-07T14:54:12;1.88;;;1.02;;